Bellingham, WA (98225)

1:18 PM PST on December 20, 2014 (GMT -0800)
Columbia-Eldridge Marimba Palace | Change Station
CLOSE
Current Station
Personal Weather Station
Location: Bellingham, WA
Elevation: 97 ft
Nearby Weather Stations
Active Advisory: Areal Flood Watch

Elev 97 ft 48.76 °N, 122.50 °W | Updated 0 second ago

Overcast
Overcast
50.9 °F
Feels Like 50.9 °F
N
6.3
Wind Variable Wind from SE
Gusts 6.9 mph

Today
High -- | Low -- °F
--% Chance of Precip.
Yesterday
High -- | Low -- °F
Precip. -- in
7:59 AM 4:15 PM
Waning Crescent, 2% visible
Pressure 29.49 in
Visibility 10.0 miles
Clouds Mostly Cloudy 3300 ft
Overcast 6000 ft
Dew Point 44 °F
Humidity 78%
Rainfall 0.02 in
Snow Depth Not available.
UV 0 out of 12
Pollen .40 out of 12
Air Quality Not available.
Flu Activity Not available.
METAR KBLI 202053Z 13012G22KT 10SM -RA BKN033 OVC060 11/06 A2947 RMK AO2 RAB1957 SLP987 P0004 60004 T01060056 58041

More Conditions Fewer Conditions

Pressure 29.49 in
Visibility 10.0 miles
Clouds Mostly Cloudy 3300 ft
Overcast 6000 ft
Dew Point 44 °F
Humidity 78%
Rainfall 0.02 in
Snow Depth Not available.
UV 0 out of 12
Pollen .40 out of 12
Air Quality Not available.
Flu Activity Not available.
METAR KBLI 202053Z 13012G22KT 10SM -RA BKN033 OVC060 11/06 A2947 RMK AO2 RAB1957 SLP987 P0004 60004 T01060056 58041

More Conditions Fewer Conditions

10-Day Weather Forecast

Almanac

Astronomy

Dec. 20, 2014 Rise Set
Actual Time
Civil Twilight
Nautical Twilight
Astronomical Twilight
Moon
Length of Visible Light
Length of Day
Tomorrow will be .
, % of the Moon is Illuminated

Today's Extremes

State Highs State Lows

Community

WunderPhotos

Upload Photos

1,779,275 photos uploaded!

WunderBlogs® & News

Nearby

Air Quality

  Air Quality AQ Index Pollutant
Not available.

Snow Depth

Station Depth Elevation

Earthquake Activity

City Distance Mag. Time & Date
Minimum magnitude displayed is 2.5.

Coastal Water Temperatures

Place Temperature

Nearby Weather Stations